CheckWX is a tool to help pilots better visualize weather data.  It is not intended as a substitute for an official pre-flight weather briefing.

07:59:42 UTC

KTPL METAR
Draughon-Miller Central Texas Regional Airport
Temple, Texas, USA
Current

51 mins ago

KTPL 260709Z AUTO 16011G19KT 10SM BKN015 23/22 A3002 RMK AO2
Observed
May-26 @ 07:09 UTC
Wind
  • 160° at 11 KTS
  • Gusting to 19 KTS
Visibility
10 SM
Flight Rules
MVFR
Cloud Levels
  • Broken at 1,500' AGL
Temperature
23°C / 73°F
Dewpoint
22°C / 72°F
Humidity
94%
Altimeter
30.02" Hg
Pressure
1016.62 hPa
Previous

1 hour ago

KTPL 260651Z AUTO 16013KT 10SM CLR 23/22 A3002 RMK AO2 SLP166 T02280217
Observed
May-26 @ 06:51 UTC
Wind
  • 160° at 13 KTS
Visibility
10 SM
Flight Rules
VFR
Cloud Levels
  • Clear skies
Temperature
23°C / 73°F
Dewpoint
22°C / 72°F
Humidity
94%
Altimeter
30.02" Hg
Pressure
1016.62 hPa
Previous

2 hours ago

KTPL 260551Z AUTO 16009KT 10SM CLR 24/21 A3003 RMK AO2 SLP171 T02390211 10300 20239 403170222 51015
Observed
May-26 @ 05:51 UTC
Wind
  • 160° at 9 KTS
Visibility
10 SM
Flight Rules
VFR
Cloud Levels
  • Clear skies
Temperature
24°C / 75°F
Dewpoint
21°C / 70°F
Humidity
83%
Altimeter
30.03" Hg
Pressure
1016.92 hPa